Terminal Aerodrome Forecast
Issued by NWS

Home | Current Version | Previous Version | Text Only | Print | Product List | Glossary On
Versions: 1 2 3 4 5 6 7 8 9 10 11 12 13 14
000
FTUS46 KLOX 200613 AAA
TAFVNY
TAF AMD
KVNY 200613Z 2006/2106 12007KT P6SM SCT250
     FM200800 28004KT P6SM BKN012 BKN025
     FM201400 34008KT P6SM BKN017 BKN035
     FM201800 33012KT P6SM BKN040 BKN090
     FM202100 33014G20KT P6SM BKN040 BKN090=

USA.gov is the U.S. government's official web portal to all federal, state and local government web resources and services.